Kansas City, Missouri
Traffic Map
Current Weather Conditions
Kansas City, Missouri
Clear
Clear
19°
Feels Like: 19°
Wind Chill: 19° Ceiling: Unl
Heat Index: 19° Visibility: 10mi
Dew Point: Wind: 10mph
Humidity: 43% Direction: 70° (ENE)
Pressure: 30.05in Gusts: 20mph
Raw Report DataKMKC 222154Z AUTO 07009G17KT 10SM CLR 19/06 A3005 RMK AO2 SLP173 T01890061
Traffic Incident Summary
Active as of:
Severity:
Category:
InformationThere was an issue retrieving the traffic information for this location. Please try a different location or try again shortly.
Advertisements